Nehalem, Oregon
Current Conditions -  °F | °C
As of 5:35 AM on Wednesday 22 Oct 2014 (Local Time) from KTMK Reporting Station
Overcast Overcast  
Wind Chill: 61°   Ceiling: 2300
Heat Index: 61°   Visibility: 10mi
Dew Point: 57°   Wind: 12mph
Humidity: 88%   Direction: 170°S
Pressure: 29.74"   Gusts: 29mph
Location:  45.72°N, 123.89°W
Report Text: KTMK 221235Z AUTO 17010G25KT 10SM BKN023 BKN032 OVC039 16/14 A2974 RMK AO2
Loading
Personal Weather Stations






























Interactive Weather Map
Tropical Storm Tracking
New forecast layout! Learn more

10-Day Weather Forecast

Advertisements
Track Severe Weather on mobile